createdAt,value
2023-03-28T05:43:19.467Z,27.42
2023-03-28T06:03:21.078Z,28.22
2023-03-28T06:07:12.875Z,28.10
2023-03-28T06:11:23.027Z,28.10
2023-03-28T06:19:19.647Z,28.16
2023-03-28T08:27:12.959Z,24.58
2023-03-28T08:31:11.729Z,22.62
2023-03-28T08:35:11.677Z,24.89
2023-03-28T08:39:11.660Z,25.03
2023-03-28T08:51:11.592Z,25.13
2023-03-28T08:55:11.610Z,25.21
2023-03-28T08:59:11.634Z,25.11
2023-03-28T09:03:11.505Z,25.12
2023-03-28T09:07:11.339Z,25.11
2023-03-28T09:11:11.410Z,25.13
2023-03-28T09:15:11.438Z,25.12
2023-03-28T09:19:11.466Z,25.13
2023-03-28T09:23:11.454Z,25.10
2023-03-28T09:27:11.788Z,25.06
2023-03-28T09:31:11.420Z,25.09
2023-03-28T09:35:11.746Z,24.17
2023-03-28T09:39:11.494Z,24.69
2023-03-28T09:47:11.673Z,25.25
2023-03-28T09:51:11.434Z,25.32
2023-03-28T09:55:11.398Z,25.29
2023-03-28T09:59:11.326Z,25.28
2023-03-28T10:03:11.317Z,25.53
2023-03-28T10:07:11.362Z,25.01
2023-03-28T10:15:11.156Z,24.09
2023-03-28T10:19:11.157Z,24.22
2023-03-28T10:23:11.094Z,24.06
2023-03-28T10:27:11.078Z,24.32
2023-03-28T10:31:11.082Z,24.59
2023-03-28T10:35:10.988Z,24.67
2023-03-28T10:39:11.207Z,24.70
2023-03-28T10:47:11.655Z,24.45
2023-03-28T10:51:12.273Z,24.45
2023-03-28T10:55:11.920Z,24.14
2023-03-28T10:59:12.057Z,24.02
2023-03-28T11:03:12.272Z,23.87
2023-03-28T11:07:12.291Z,24.24
2023-03-28T11:11:12.507Z,24.24
2023-03-28T11:15:12.693Z,23.83
2023-03-28T11:19:12.616Z,23.63
2023-03-28T11:23:12.760Z,23.07
2023-03-28T11:27:16.254Z,22.68
2023-03-28T11:31:12.917Z,22.44
2023-03-28T11:35:12.927Z,22.12
2023-03-28T11:39:12.846Z,21.90
2023-03-28T11:43:12.840Z,21.70
2023-03-28T11:47:12.766Z,21.60
2023-03-28T11:51:12.728Z,20.62
2023-03-28T11:55:14.962Z,20.73
2023-03-28T11:59:12.741Z,20.69
2023-03-28T12:03:12.900Z,21.17
2023-03-28T12:07:12.830Z,21.65
2023-03-28T12:11:12.729Z,22.53
2023-03-28T12:15:12.907Z,23.11
2023-03-28T12:19:13.084Z,23.45
2023-03-28T12:23:13.248Z,23.68
2023-03-28T12:27:13.452Z,24.12
2023-03-28T12:31:13.531Z,24.19
2023-03-28T12:35:13.602Z,24.05
2023-03-28T12:39:13.665Z,23.83
2023-03-28T12:43:13.762Z,23.98
2023-03-28T12:47:13.817Z,24.20
2023-03-28T12:51:13.810Z,23.24
2023-03-28T12:55:13.846Z,22.13
2023-03-28T12:59:13.988Z,20.72
2023-03-28T13:03:14.039Z,22.27
2023-03-28T13:07:17.798Z,23.13
2023-03-28T13:15:13.951Z,23.58
2023-03-28T13:23:13.933Z,23.63
2023-03-28T13:27:13.886Z,23.43
2023-03-28T13:31:15.092Z,23.93
2023-03-28T13:35:14.014Z,23.92
